Weather at Kampot Airport [CLOSED]

Public forecast

Using degrees Celsius for public forecast. Weather courtesy of forecast.io.

Closest aviation weather report (METAR) to Kampot Airport

Closest report is Phu Quoc International Airport, 29.6 nm (54.8 km) SSW.

2024/07/24 03:30 (retrieved 36 minutes ago)

VVPQ 240330Z 24009KT 9999 SCT015 SCT040 31/26 Q1007 NOSIG

Closest aviation forecast (TAF) to Kampot Airport

Forecast is more than 12 hours old.

Closest forecast is Car Nicobar Air Force Base, 676.7 nm (1,253.2 km) W.

2024/07/23 12:00 (retrieved 16 hours ago)

TAF VOCX 230930Z 2312/2324 22010KT 6000 SCT015 BKN090 TEMPO 1215/1217 24010G20KT 5000 RA SCT015 FEW025TCU BKN090